sensor_id;sensor_type;location;lat;lon;timestamp;P1;durP1;ratioP1;P2;durP2;ratioP2
12145;SDS011;6136;47.032;15.398;2024-02-21T00:02:22;6.83;;;3.90;;
12145;SDS011;6136;47.032;15.398;2024-02-21T00:04:50;6.07;;;4.30;;
12145;SDS011;6136;47.032;15.398;2024-02-21T00:07:20;9.13;;;4.33;;
12145;SDS011;6136;47.032;15.398;2024-02-21T00:09:48;5.00;;;3.80;;
12145;SDS011;6136;47.032;15.398;2024-02-21T00:12:16;5.77;;;4.13;;
12145;SDS011;6136;47.032;15.398;2024-02-21T00:14:44;8.23;;;4.87;;
12145;SDS011;6136;47.032;15.398;2024-02-21T00:17:12;8.23;;;5.60;;
12145;SDS011;6136;47.032;15.398;2024-02-21T00:19:40;11.43;;;5.53;;
12145;SDS011;6136;47.032;15.398;2024-02-21T00:22:08;6.27;;;4.37;;
12145;SDS011;6136;47.032;15.398;2024-02-21T00:24:38;11.13;;;5.37;;
12145;SDS011;6136;47.032;15.398;2024-02-21T00:27:06;6.97;;;4.40;;
12145;SDS011;6136;47.032;15.398;2024-02-21T00:29:34;7.33;;;4.03;;
12145;SDS011;6136;47.032;15.398;2024-02-21T00:32:02;6.03;;;4.30;;
12145;SDS011;6136;47.032;15.398;2024-02-21T00:34:30;7.43;;;4.40;;
12145;SDS011;6136;47.032;15.398;2024-02-21T00:36:59;7.20;;;3.73;;
12145;SDS011;6136;47.032;15.398;2024-02-21T00:39:26;5.73;;;4.00;;
12145;SDS011;6136;47.032;15.398;2024-02-21T00:41:56;4.00;;;3.50;;
12145;SDS011;6136;47.032;15.398;2024-02-21T00:44:24;6.90;;;4.23;;
12145;SDS011;6136;47.032;15.398;2024-02-21T00:46:52;4.30;;;3.70;;
12145;SDS011;6136;47.032;15.398;2024-02-21T00:49:20;9.20;;;4.00;;
12145;SDS011;6136;47.032;15.398;2024-02-21T00:51:48;6.83;;;3.90;;
12145;SDS011;6136;47.032;15.398;2024-02-21T00:54:16;7.57;;;4.50;;
12145;SDS011;6136;47.032;15.398;2024-02-21T00:56:44;5.87;;;3.87;;
12145;SDS011;6136;47.032;15.398;2024-02-21T00:59:13;6.07;;;3.90;;
12145;SDS011;6136;47.032;15.398;2024-02-21T01:01:41;4.60;;;3.73;;
12145;SDS011;6136;47.032;15.398;2024-02-21T01:04:09;9.60;;;4.03;;
12145;SDS011;6136;47.032;15.398;2024-02-21T01:06:38;9.00;;;4.17;;
12145;SDS011;6136;47.032;15.398;2024-02-21T01:09:09;6.33;;;4.17;;
12145;SDS011;6136;47.032;15.398;2024-02-21T01:11:37;5.47;;;3.50;;
12145;SDS011;6136;47.032;15.398;2024-02-21T01:14:05;7.90;;;4.23;;
12145;SDS011;6136;47.032;15.398;2024-02-21T01:16:34;6.63;;;3.60;;
12145;SDS011;6136;47.032;15.398;2024-02-21T01:19:02;5.53;;;3.77;;
12145;SDS011;6136;47.032;15.398;2024-02-21T01:21:30;7.30;;;3.90;;
12145;SDS011;6136;47.032;15.398;2024-02-21T01:23:58;10.07;;;4.13;;
12145;SDS011;6136;47.032;15.398;2024-02-21T01:26:26;7.43;;;4.33;;
12145;SDS011;6136;47.032;15.398;2024-02-21T01:28:54;10.20;;;4.40;;
12145;SDS011;6136;47.032;15.398;2024-02-21T01:31:23;6.10;;;4.00;;
12145;SDS011;6136;47.032;15.398;2024-02-21T01:33:52;7.83;;;3.60;;
12145;SDS011;6136;47.032;15.398;2024-02-21T01:36:20;5.97;;;3.90;;
12145;SDS011;6136;47.032;15.398;2024-02-21T01:38:48;7.40;;;4.20;;
12145;SDS011;6136;47.032;15.398;2024-02-21T01:41:16;5.90;;;4.07;;
12145;SDS011;6136;47.032;15.398;2024-02-21T01:43:44;6.47;;;3.83;;
12145;SDS011;6136;47.032;15.398;2024-02-21T01:46:12;9.70;;;4.70;;
12145;SDS011;6136;47.032;15.398;2024-02-21T01:48:40;7.53;;;4.67;;
12145;SDS011;6136;47.032;15.398;2024-02-21T01:51:10;6.83;;;4.60;;
12145;SDS011;6136;47.032;15.398;2024-02-21T01:53:38;8.67;;;5.43;;
12145;SDS011;6136;47.032;15.398;2024-02-21T01:56:08;8.27;;;5.33;;
12145;SDS011;6136;47.032;15.398;2024-02-21T01:58:36;7.57;;;4.53;;
12145;SDS011;6136;47.032;15.398;2024-02-21T02:01:05;6.53;;;4.00;;
12145;SDS011;6136;47.032;15.398;2024-02-21T02:03:33;9.13;;;4.23;;
12145;SDS011;6136;47.032;15.398;2024-02-21T02:06:01;4.77;;;3.77;;
12145;SDS011;6136;47.032;15.398;2024-02-21T02:08:31;6.30;;;4.37;;
12145;SDS011;6136;47.032;15.398;2024-02-21T02:10:59;6.30;;;4.77;;
12145;SDS011;6136;47.032;15.398;2024-02-21T02:13:27;6.40;;;4.20;;
12145;SDS011;6136;47.032;15.398;2024-02-21T02:15:55;6.67;;;4.83;;
12145;SDS011;6136;47.032;15.398;2024-02-21T02:18:23;6.87;;;4.43;;
12145;SDS011;6136;47.032;15.398;2024-02-21T02:20:51;11.67;;;6.30;;
12145;SDS011;6136;47.032;15.398;2024-02-21T02:23:23;9.03;;;5.97;;
12145;SDS011;6136;47.032;15.398;2024-02-21T02:25:51;9.60;;;6.17;;
12145;SDS011;6136;47.032;15.398;2024-02-21T02:28:20;15.07;;;6.50;;
12145;SDS011;6136;47.032;15.398;2024-02-21T02:30:48;12.83;;;6.20;;
12145;SDS011;6136;47.032;15.398;2024-02-21T02:33:16;8.60;;;5.47;;
12145;SDS011;6136;47.032;15.398;2024-02-21T02:35:45;8.33;;;5.13;;
12145;SDS011;6136;47.032;15.398;2024-02-21T02:38:13;8.03;;;5.20;;
12145;SDS011;6136;47.032;15.398;2024-02-21T02:40:43;9.50;;;5.60;;
12145;SDS011;6136;47.032;15.398;2024-02-21T02:43:11;9.00;;;5.80;;
12145;SDS011;6136;47.032;15.398;2024-02-21T02:45:39;8.20;;;5.43;;
12145;SDS011;6136;47.032;15.398;2024-02-21T02:48:07;8.30;;;5.60;;
12145;SDS011;6136;47.032;15.398;2024-02-21T02:50:35;12.77;;;6.17;;
12145;SDS011;6136;47.032;15.398;2024-02-21T02:53:03;10.70;;;5.53;;
12145;SDS011;6136;47.032;15.398;2024-02-21T02:55:31;10.23;;;5.77;;
12145;SDS011;6136;47.032;15.398;2024-02-21T02:58:01;10.80;;;6.03;;
12145;SDS011;6136;47.032;15.398;2024-02-21T03:00:29;8.93;;;5.60;;
12145;SDS011;6136;47.032;15.398;2024-02-21T03:02:57;7.13;;;4.80;;
12145;SDS011;6136;47.032;15.398;2024-02-21T03:05:25;8.47;;;5.00;;
12145;SDS011;6136;47.032;15.398;2024-02-21T03:07:53;14.00;;;5.33;;
12145;SDS011;6136;47.032;15.398;2024-02-21T03:10:22;10.23;;;4.63;;
12145;SDS011;6136;47.032;15.398;2024-02-21T03:12:50;11.23;;;5.77;;
12145;SDS011;6136;47.032;15.398;2024-02-21T03:15:21;10.23;;;4.77;;
12145;SDS011;6136;47.032;15.398;2024-02-21T03:17:49;8.30;;;5.10;;
12145;SDS011;6136;47.032;15.398;2024-02-21T03:20:17;9.50;;;5.03;;
12145;SDS011;6136;47.032;15.398;2024-02-21T03:22:46;9.47;;;4.90;;
12145;SDS011;6136;47.032;15.398;2024-02-21T03:25:14;7.90;;;4.73;;
12145;SDS011;6136;47.032;15.398;2024-02-21T03:27:42;6.20;;;4.00;;
12145;SDS011;6136;47.032;15.398;2024-02-21T03:30:10;7.37;;;4.33;;
12145;SDS011;6136;47.032;15.398;2024-02-21T03:32:40;6.87;;;4.67;;
12145;SDS011;6136;47.032;15.398;2024-02-21T03:35:08;11.50;;;4.47;;
12145;SDS011;6136;47.032;15.398;2024-02-21T03:37:37;7.53;;;4.40;;
12145;SDS011;6136;47.032;15.398;2024-02-21T03:40:06;11.07;;;4.47;;
12145;SDS011;6136;47.032;15.398;2024-02-21T03:42:34;6.83;;;4.37;;
12145;SDS011;6136;47.032;15.398;2024-02-21T03:45:03;7.23;;;4.50;;
12145;SDS011;6136;47.032;15.398;2024-02-21T03:47:31;5.90;;;4.40;;
12145;SDS011;6136;47.032;15.398;2024-02-21T03:50:00;9.33;;;4.77;;
12145;SDS011;6136;47.032;15.398;2024-02-21T03:52:29;8.23;;;4.73;;
12145;SDS011;6136;47.032;15.398;2024-02-21T03:54:57;9.50;;;5.63;;
12145;SDS011;6136;47.032;15.398;2024-02-21T03:57:25;11.67;;;5.47;;
12145;SDS011;6136;47.032;15.398;2024-02-21T03:59:53;8.83;;;5.33;;
12145;SDS011;6136;47.032;15.398;2024-02-21T04:02:21;8.43;;;5.73;;
12145;SDS011;6136;47.032;15.398;2024-02-21T04:04:49;9.47;;;5.17;;
12145;SDS011;6136;47.032;15.398;2024-02-21T04:07:19;8.67;;;5.00;;
12145;SDS011;6136;47.032;15.398;2024-02-21T04:09:47;5.50;;;4.00;;
12145;SDS011;6136;47.032;15.398;2024-02-21T04:12:15;6.20;;;4.43;;
12145;SDS011;6136;47.032;15.398;2024-02-21T04:14:43;11.27;;;5.50;;
12145;SDS011;6136;47.032;15.398;2024-02-21T04:17:13;5.97;;;4.70;;
12145;SDS011;6136;47.032;15.398;2024-02-21T04:19:41;6.60;;;4.77;;
12145;SDS011;6136;47.032;15.398;2024-02-21T04:22:09;8.60;;;4.83;;
12145;SDS011;6136;47.032;15.398;2024-02-21T04:24:38;10.37;;;6.33;;
12145;SDS011;6136;47.032;15.398;2024-02-21T04:27:06;10.90;;;5.80;;
12145;SDS011;6136;47.032;15.398;2024-02-21T04:29:34;13.63;;;6.53;;
12145;SDS011;6136;47.032;15.398;2024-02-21T04:32:02;12.17;;;6.83;;
12145;SDS011;6136;47.032;15.398;2024-02-21T04:34:31;12.23;;;7.37;;
12145;SDS011;6136;47.032;15.398;2024-02-21T04:37:00;11.27;;;6.30;;
12145;SDS011;6136;47.032;15.398;2024-02-21T04:39:28;8.50;;;5.73;;
12145;SDS011;6136;47.032;15.398;2024-02-21T04:41:57;14.17;;;5.90;;
12145;SDS011;6136;47.032;15.398;2024-02-21T04:44:25;12.60;;;5.70;;
12145;SDS011;6136;47.032;15.398;2024-02-21T04:46:53;7.93;;;4.73;;
12145;SDS011;6136;47.032;15.398;2024-02-21T04:49:21;8.97;;;4.80;;
12145;SDS011;6136;47.032;15.398;2024-02-21T04:51:49;10.40;;;5.03;;
12145;SDS011;6136;47.032;15.398;2024-02-21T04:54:17;12.23;;;5.77;;
12145;SDS011;6136;47.032;15.398;2024-02-21T04:56:45;10.53;;;5.83;;
12145;SDS011;6136;47.032;15.398;2024-02-21T04:59:17;16.83;;;6.10;;
12145;SDS011;6136;47.032;15.398;2024-02-21T05:01:45;11.10;;;6.00;;
12145;SDS011;6136;47.032;15.398;2024-02-21T05:04:13;10.90;;;6.23;;
12145;SDS011;6136;47.032;15.398;2024-02-21T05:06:41;7.27;;;5.47;;
12145;SDS011;6136;47.032;15.398;2024-02-21T05:09:10;12.97;;;6.93;;
12145;SDS011;6136;47.032;15.398;2024-02-21T05:11:38;12.40;;;7.13;;
12145;SDS011;6136;47.032;15.398;2024-02-21T05:14:06;10.73;;;7.43;;
12145;SDS011;6136;47.032;15.398;2024-02-21T05:16:35;10.47;;;6.30;;
12145;SDS011;6136;47.032;15.398;2024-02-21T05:19:04;9.07;;;6.20;;
12145;SDS011;6136;47.032;15.398;2024-02-21T05:21:32;10.27;;;6.67;;
12145;SDS011;6136;47.032;15.398;2024-02-21T05:24:00;10.80;;;6.70;;
12145;SDS011;6136;47.032;15.398;2024-02-21T05:26:28;10.20;;;5.90;;
12145;SDS011;6136;47.032;15.398;2024-02-21T05:28:56;9.93;;;5.60;;
12145;SDS011;6136;47.032;15.398;2024-02-21T05:31:26;9.60;;;6.43;;
12145;SDS011;6136;47.032;15.398;2024-02-21T05:33:55;10.97;;;6.83;;
12145;SDS011;6136;47.032;15.398;2024-02-21T05:36:27;10.53;;;6.40;;
12145;SDS011;6136;47.032;15.398;2024-02-21T05:38:55;10.47;;;6.80;;
12145;SDS011;6136;47.032;15.398;2024-02-21T05:41:24;8.07;;;6.00;;
12145;SDS011;6136;47.032;15.398;2024-02-21T05:43:52;12.10;;;6.73;;
12145;SDS011;6136;47.032;15.398;2024-02-21T05:46:20;11.33;;;6.83;;
12145;SDS011;6136;47.032;15.398;2024-02-21T05:48:48;11.53;;;7.07;;
12145;SDS011;6136;47.032;15.398;2024-02-21T05:51:17;9.43;;;6.40;;
12145;SDS011;6136;47.032;15.398;2024-02-21T05:53:45;9.17;;;6.10;;
12145;SDS011;6136;47.032;15.398;2024-02-21T05:56:14;10.23;;;6.27;;
12145;SDS011;6136;47.032;15.398;2024-02-21T05:58:42;10.57;;;6.30;;
12145;SDS011;6136;47.032;15.398;2024-02-21T06:01:10;10.13;;;6.03;;
12145;SDS011;6136;47.032;15.398;2024-02-21T06:03:38;8.97;;;5.90;;
12145;SDS011;6136;47.032;15.398;2024-02-21T06:06:06;9.50;;;5.70;;
12145;SDS011;6136;47.032;15.398;2024-02-21T06:08:35;8.97;;;6.03;;
12145;SDS011;6136;47.032;15.398;2024-02-21T06:11:03;9.03;;;6.00;;
12145;SDS011;6136;47.032;15.398;2024-02-21T06:13:31;8.73;;;6.20;;
12145;SDS011;6136;47.032;15.398;2024-02-21T06:15:59;12.50;;;7.13;;
12145;SDS011;6136;47.032;15.398;2024-02-21T06:18:27;16.30;;;7.50;;
12145;SDS011;6136;47.032;15.398;2024-02-21T06:20:55;10.27;;;6.23;;
12145;SDS011;6136;47.032;15.398;2024-02-21T06:23:23;10.90;;;6.10;;
12145;SDS011;6136;47.032;15.398;2024-02-21T06:25:53;9.17;;;5.37;;
12145;SDS011;6136;47.032;15.398;2024-02-21T06:28:21;9.47;;;5.87;;
12145;SDS011;6136;47.032;15.398;2024-02-21T06:30:49;11.00;;;5.83;;
12145;SDS011;6136;47.032;15.398;2024-02-21T06:33:17;12.43;;;5.40;;
12145;SDS011;6136;47.032;15.398;2024-02-21T06:35:49;9.07;;;5.90;;
12145;SDS011;6136;47.032;15.398;2024-02-21T06:38:19;16.27;;;6.10;;
12145;SDS011;6136;47.032;15.398;2024-02-21T06:40:47;7.87;;;5.20;;
12145;SDS011;6136;47.032;15.398;2024-02-21T06:43:20;11.63;;;6.00;;
12145;SDS011;6136;47.032;15.398;2024-02-21T06:45:49;9.43;;;5.33;;
12145;SDS011;6136;47.032;15.398;2024-02-21T06:48:18;9.60;;;4.83;;
12145;SDS011;6136;47.032;15.398;2024-02-21T06:50:46;9.23;;;6.03;;
12145;SDS011;6136;47.032;15.398;2024-02-21T06:53:14;9.97;;;5.67;;
12145;SDS011;6136;47.032;15.398;2024-02-21T06:55:42;15.67;;;6.07;;
12145;SDS011;6136;47.032;15.398;2024-02-21T06:58:10;10.23;;;5.20;;
12145;SDS011;6136;47.032;15.398;2024-02-21T07:00:42;6.17;;;4.77;;
12145;SDS011;6136;47.032;15.398;2024-02-21T07:03:10;12.90;;;4.37;;
12145;SDS011;6136;47.032;15.398;2024-02-21T07:05:38;8.80;;;4.10;;
12145;SDS011;6136;47.032;15.398;2024-02-21T07:08:06;5.47;;;4.60;;
12145;SDS011;6136;47.032;15.398;2024-02-21T07:10:34;5.67;;;4.37;;
12145;SDS011;6136;47.032;15.398;2024-02-21T07:13:02;13.90;;;4.50;;
12145;SDS011;6136;47.032;15.398;2024-02-21T07:15:30;11.90;;;4.03;;
12145;SDS011;6136;47.032;15.398;2024-02-21T07:18:01;7.63;;;4.20;;
12145;SDS011;6136;47.032;15.398;2024-02-21T07:20:29;8.07;;;4.63;;
12145;SDS011;6136;47.032;15.398;2024-02-21T07:22:57;10.70;;;5.50;;
12145;SDS011;6136;47.032;15.398;2024-02-21T07:25:25;8.63;;;4.23;;
12145;SDS011;6136;47.032;15.398;2024-02-21T07:27:53;7.47;;;4.13;;
12145;SDS011;6136;47.032;15.398;2024-02-21T07:30:21;6.07;;;3.63;;
12145;SDS011;6136;47.032;15.398;2024-02-21T07:32:49;9.20;;;4.90;;
12145;SDS011;6136;47.032;15.398;2024-02-21T07:35:19;6.40;;;3.97;;
12145;SDS011;6136;47.032;15.398;2024-02-21T07:37:47;7.87;;;4.50;;
12145;SDS011;6136;47.032;15.398;2024-02-21T07:40:15;7.57;;;5.13;;
12145;SDS011;6136;47.032;15.398;2024-02-21T07:42:43;8.83;;;4.70;;
12145;SDS011;6136;47.032;15.398;2024-02-21T07:45:17;7.07;;;4.27;;
12145;SDS011;6136;47.032;15.398;2024-02-21T07:47:48;8.23;;;4.37;;
12145;SDS011;6136;47.032;15.398;2024-02-21T07:50:16;10.97;;;4.67;;
12145;SDS011;6136;47.032;15.398;2024-02-21T07:52:46;10.13;;;4.60;;
12145;SDS011;6136;47.032;15.398;2024-02-21T07:55:14;7.07;;;4.20;;
12145;SDS011;6136;47.032;15.398;2024-02-21T07:57:42;6.73;;;4.37;;
12145;SDS011;6136;47.032;15.398;2024-02-21T08:00:10;9.87;;;4.03;;
12145;SDS011;6136;47.032;15.398;2024-02-21T08:02:46;6.70;;;4.13;;
12145;SDS011;6136;47.032;15.398;2024-02-21T08:05:14;13.70;;;3.90;;
12145;SDS011;6136;47.032;15.398;2024-02-21T08:07:42;7.37;;;4.00;;
12145;SDS011;6136;47.032;15.398;2024-02-21T08:10:12;8.97;;;3.87;;
12145;SDS011;6136;47.032;15.398;2024-02-21T08:12:40;5.50;;;3.90;;
12145;SDS011;6136;47.032;15.398;2024-02-21T08:15:08;13.00;;;4.50;;
12145;SDS011;6136;47.032;15.398;2024-02-21T08:17:37;7.60;;;4.00;;
12145;SDS011;6136;47.032;15.398;2024-02-21T08:20:05;10.27;;;3.80;;
12145;SDS011;6136;47.032;15.398;2024-02-21T08:22:33;6.67;;;3.73;;
12145;SDS011;6136;47.032;15.398;2024-02-21T08:25:05;6.93;;;3.60;;
12145;SDS011;6136;47.032;15.398;2024-02-21T08:27:34;5.33;;;3.50;;
12145;SDS011;6136;47.032;15.398;2024-02-21T08:30:02;4.73;;;3.47;;
12145;SDS011;6136;47.032;15.398;2024-02-21T08:32:30;7.63;;;3.50;;
12145;SDS011;6136;47.032;15.398;2024-02-21T08:34:58;6.17;;;3.87;;
12145;SDS011;6136;47.032;15.398;2024-02-21T08:37:27;7.53;;;3.97;;
12145;SDS011;6136;47.032;15.398;2024-02-21T08:39:55;7.80;;;4.50;;
12145;SDS011;6136;47.032;15.398;2024-02-21T08:42:23;6.93;;;4.03;;
12145;SDS011;6136;47.032;15.398;2024-02-21T08:44:52;7.83;;;4.40;;
12145;SDS011;6136;47.032;15.398;2024-02-21T08:47:20;4.53;;;3.90;;
12145;SDS011;6136;47.032;15.398;2024-02-21T08:49:48;13.60;;;4.20;;
12145;SDS011;6136;47.032;15.398;2024-02-21T08:52:16;7.70;;;4.70;;
12145;SDS011;6136;47.032;15.398;2024-02-21T08:54:44;7.60;;;4.07;;
12145;SDS011;6136;47.032;15.398;2024-02-21T08:57:12;5.93;;;4.22;;
12145;SDS011;6136;47.032;15.398;2024-02-21T08:59:40;7.85;;;4.70;;
12145;SDS011;6136;47.032;15.398;2024-02-21T09:02:09;9.88;;;4.40;;
12145;SDS011;6136;47.032;15.398;2024-02-21T09:04:37;7.53;;;4.90;;
12145;SDS011;6136;47.032;15.398;2024-02-21T09:07:05;18.10;;;5.78;;
12145;SDS011;6136;47.032;15.398;2024-02-21T09:09:34;6.82;;;4.18;;
12145;SDS011;6136;47.032;15.398;2024-02-21T09:12:02;8.63;;;4.25;;
12145;SDS011;6136;47.032;15.398;2024-02-21T09:14:32;6.82;;;3.67;;
12145;SDS011;6136;47.032;15.398;2024-02-21T09:17:00;5.47;;;2.85;;
12145;SDS011;6136;47.032;15.398;2024-02-21T09:19:30;6.95;;;3.15;;
12145;SDS011;6136;47.032;15.398;2024-02-21T09:21:58;10.23;;;2.92;;
12145;SDS011;6136;47.032;15.398;2024-02-21T09:24:26;6.40;;;3.42;;
12145;SDS011;6136;47.032;15.398;2024-02-21T09:26:54;9.43;;;3.53;;
12145;SDS011;6136;47.032;15.398;2024-02-21T09:29:22;6.20;;;3.45;;
12145;SDS011;6136;47.032;15.398;2024-02-21T09:31:53;6.78;;;4.28;;
12145;SDS011;6136;47.032;15.398;2024-02-21T09:34:21;5.97;;;4.20;;
12145;SDS011;6136;47.032;15.398;2024-02-21T09:36:51;6.50;;;4.25;;
12145;SDS011;6136;47.032;15.398;2024-02-21T09:39:19;9.27;;;4.80;;
12145;SDS011;6136;47.032;15.398;2024-02-21T09:41:49;9.50;;;4.47;;
12145;SDS011;6136;47.032;15.398;2024-02-21T09:44:19;6.93;;;4.73;;
12145;SDS011;6136;47.032;15.398;2024-02-21T09:46:50;13.43;;;5.77;;
12145;SDS011;6136;47.032;15.398;2024-02-21T09:49:21;8.13;;;4.43;;
12145;SDS011;6136;47.032;15.398;2024-02-21T09:51:54;15.83;;;4.30;;
12145;SDS011;6136;47.032;15.398;2024-02-21T09:54:23;9.23;;;3.97;;
12145;SDS011;6136;47.032;15.398;2024-02-21T09:56:51;9.23;;;4.40;;
12145;SDS011;6136;47.032;15.398;2024-02-21T09:59:19;5.47;;;3.73;;
12145;SDS011;6136;47.032;15.398;2024-02-21T10:01:47;6.50;;;3.47;;
12145;SDS011;6136;47.032;15.398;2024-02-21T10:04:17;7.90;;;3.40;;
12145;SDS011;6136;47.032;15.398;2024-02-21T10:06:45;8.47;;;3.47;;
12145;SDS011;6136;47.032;15.398;2024-02-21T10:09:21;6.23;;;4.27;;
12145;SDS011;6136;47.032;15.398;2024-02-21T10:11:50;6.40;;;3.50;;
12145;SDS011;6136;47.032;15.398;2024-02-21T10:14:18;6.97;;;3.50;;
12145;SDS011;6136;47.032;15.398;2024-02-21T10:16:47;4.00;;;2.80;;
12145;SDS011;6136;47.032;15.398;2024-02-21T10:19:17;4.20;;;2.90;;
12145;SDS011;6136;47.032;15.398;2024-02-21T10:21:59;4.93;;;3.43;;
12145;SDS011;6136;47.032;15.398;2024-02-21T10:24:28;6.93;;;3.17;;
12145;SDS011;6136;47.032;15.398;2024-02-21T10:27:01;5.83;;;2.70;;
12145;SDS011;6136;47.032;15.398;2024-02-21T10:29:30;5.50;;;2.80;;
12145;SDS011;6136;47.032;15.398;2024-02-21T10:32:05;5.75;;;3.10;;
12145;SDS011;6136;47.032;15.398;2024-02-21T10:34:34;5.10;;;2.92;;
12145;SDS011;6136;47.032;15.398;2024-02-21T10:37:02;4.72;;;2.60;;
12145;SDS011;6136;47.032;15.398;2024-02-21T10:39:32;10.15;;;2.80;;
12145;SDS011;6136;47.032;15.398;2024-02-21T10:42:01;6.22;;;3.28;;
12145;SDS011;6136;47.032;15.398;2024-02-21T10:44:31;3.45;;;2.78;;
12145;SDS011;6136;47.032;15.398;2024-02-21T10:46:59;8.18;;;3.28;;
12145;SDS011;6136;47.032;15.398;2024-02-21T10:49:27;4.63;;;3.20;;
12145;SDS011;6136;47.032;15.398;2024-02-21T10:51:59;4.18;;;2.47;;
12145;SDS011;6136;47.032;15.398;2024-02-21T10:54:37;7.75;;;2.92;;
12145;SDS011;6136;47.032;15.398;2024-02-21T10:57:07;4.72;;;2.55;;
12145;SDS011;6136;47.032;15.398;2024-02-21T10:59:37;5.93;;;3.03;;
12145;SDS011;6136;47.032;15.398;2024-02-21T11:02:05;4.95;;;3.00;;
12145;SDS011;6136;47.032;15.398;2024-02-21T11:04:33;3.42;;;3.10;;
12145;SDS011;6136;47.032;15.398;2024-02-21T11:07:03;8.98;;;2.95;;
12145;SDS011;6136;47.032;15.398;2024-02-21T11:09:38;2.95;;;2.50;;
12145;SDS011;6136;47.032;15.398;2024-02-21T11:12:06;5.20;;;2.88;;
12145;SDS011;6136;47.032;15.398;2024-02-21T11:14:37;6.00;;;3.05;;
12145;SDS011;6136;47.032;15.398;2024-02-21T11:17:14;4.50;;;2.80;;
12145;SDS011;6136;47.032;15.398;2024-02-21T11:19:42;6.32;;;2.50;;
12145;SDS011;6136;47.032;15.398;2024-02-21T11:22:14;5.50;;;2.70;;
12145;SDS011;6136;47.032;15.398;2024-02-21T11:24:44;4.32;;;2.83;;
12145;SDS011;6136;47.032;15.398;2024-02-21T11:27:12;3.55;;;2.67;;
12145;SDS011;6136;47.032;15.398;2024-02-21T11:29:42;3.88;;;2.47;;
12145;SDS011;6136;47.032;15.398;2024-02-21T11:32:10;6.38;;;2.78;;
12145;SDS011;6136;47.032;15.398;2024-02-21T11:34:39;8.20;;;2.88;;
12145;SDS011;6136;47.032;15.398;2024-02-21T11:37:14;5.25;;;2.15;;
12145;SDS011;6136;47.032;15.398;2024-02-21T11:39:44;2.63;;;2.20;;
12145;SDS011;6136;47.032;15.398;2024-02-21T11:42:13;6.65;;;2.40;;
12145;SDS011;6136;47.032;15.398;2024-02-21T11:44:41;5.88;;;2.92;;
12145;SDS011;6136;47.032;15.398;2024-02-21T11:47:09;4.18;;;2.08;;
12145;SDS011;6136;47.032;15.398;2024-02-21T11:49:38;3.67;;;2.38;;
12145;SDS011;6136;47.032;15.398;2024-02-21T11:52:06;5.65;;;2.63;;
12145;SDS011;6136;47.032;15.398;2024-02-21T11:54:34;3.53;;;2.25;;
12145;SDS011;6136;47.032;15.398;2024-02-21T11:57:04;4.82;;;2.22;;
12145;SDS011;6136;47.032;15.398;2024-02-21T11:59:32;4.85;;;2.60;;
12145;SDS011;6136;47.032;15.398;2024-02-21T12:02:00;5.43;;;2.20;;
12145;SDS011;6136;47.032;15.398;2024-02-21T12:04:29;2.65;;;2.17;;
12145;SDS011;6136;47.032;15.398;2024-02-21T12:06:59;3.17;;;2.15;;
12145;SDS011;6136;47.032;15.398;2024-02-21T12:09:27;2.72;;;2.10;;
12145;SDS011;6136;47.032;15.398;2024-02-21T12:11:58;2.97;;;2.05;;
12145;SDS011;6136;47.032;15.398;2024-02-21T12:14:29;4.82;;;2.30;;
12145;SDS011;6136;47.032;15.398;2024-02-21T12:16:58;3.25;;;2.17;;
12145;SDS011;6136;47.032;15.398;2024-02-21T12:19:28;3.67;;;2.60;;
12145;SDS011;6136;47.032;15.398;2024-02-21T12:21:58;2.97;;;2.15;;
12145;SDS011;6136;47.032;15.398;2024-02-21T12:24:27;2.47;;;2.00;;
12145;SDS011;6136;47.032;15.398;2024-02-21T12:26:55;4.65;;;3.35;;
12145;SDS011;6136;47.032;15.398;2024-02-21T12:29:25;5.45;;;2.22;;
12145;SDS011;6136;47.032;15.398;2024-02-21T12:31:55;1.95;;;1.73;;
12145;SDS011;6136;47.032;15.398;2024-02-21T12:34:23;7.50;;;2.38;;
12145;SDS011;6136;47.032;15.398;2024-02-21T12:37:10;8.30;;;1.83;;
12145;SDS011;6136;47.032;15.398;2024-02-21T12:39:39;2.22;;;2.00;;
12145;SDS011;6136;47.032;15.398;2024-02-21T12:42:07;2.58;;;2.00;;
12145;SDS011;6136;47.032;15.398;2024-02-21T12:44:38;6.25;;;2.17;;
12145;SDS011;6136;47.032;15.398;2024-02-21T12:47:08;4.00;;;2.10;;
12145;SDS011;6136;47.032;15.398;2024-02-21T12:49:36;2.55;;;1.90;;
12145;SDS011;6136;47.032;15.398;2024-02-21T12:52:09;3.17;;;1.90;;
12145;SDS011;6136;47.032;15.398;2024-02-21T12:54:37;2.42;;;1.80;;
12145;SDS011;6136;47.032;15.398;2024-02-21T12:57:05;2.00;;;1.67;;
12145;SDS011;6136;47.032;15.398;2024-02-21T12:59:33;3.40;;;1.98;;
12145;SDS011;6136;47.032;15.398;2024-02-21T13:02:01;2.38;;;1.70;;
12145;SDS011;6136;47.032;15.398;2024-02-21T13:04:31;2.83;;;1.50;;
12145;SDS011;6136;47.032;15.398;2024-02-21T13:06:59;3.85;;;1.60;;
12145;SDS011;6136;47.032;15.398;2024-02-21T13:09:27;2.67;;;1.90;;
12145;SDS011;6136;47.032;15.398;2024-02-21T13:11:55;2.38;;;1.80;;
12145;SDS011;6136;47.032;15.398;2024-02-21T13:14:23;2.70;;;1.75;;
12145;SDS011;6136;47.032;15.398;2024-02-21T13:16:51;3.08;;;1.80;;
12145;SDS011;6136;47.032;15.398;2024-02-21T13:19:19;2.72;;;1.50;;
12145;SDS011;6136;47.032;15.398;2024-02-21T13:21:49;1.67;;;1.58;;
12145;SDS011;6136;47.032;15.398;2024-02-21T13:24:16;3.40;;;1.60;;
12145;SDS011;6136;47.032;15.398;2024-02-21T13:26:45;2.40;;;1.52;;
12145;SDS011;6136;47.032;15.398;2024-02-21T13:29:13;2.00;;;1.80;;
12145;SDS011;6136;47.032;15.398;2024-02-21T13:31:41;3.88;;;1.60;;
12145;SDS011;6136;47.032;15.398;2024-02-21T13:34:09;2.08;;;1.60;;
12145;SDS011;6136;47.032;15.398;2024-02-21T13:36:38;1.67;;;1.45;;
12145;SDS011;6136;47.032;15.398;2024-02-21T13:39:07;3.30;;;1.67;;
12145;SDS011;6136;47.032;15.398;2024-02-21T13:41:39;2.08;;;1.42;;
12145;SDS011;6136;47.032;15.398;2024-02-21T13:44:07;1.95;;;1.65;;
12145;SDS011;6136;47.032;15.398;2024-02-21T13:46:36;2.78;;;1.50;;
12145;SDS011;6136;47.032;15.398;2024-02-21T13:49:04;1.92;;;1.30;;
12145;SDS011;6136;47.032;15.398;2024-02-21T13:51:33;1.85;;;1.48;;
12145;SDS011;6136;47.032;15.398;2024-02-21T13:54:03;4.25;;;1.63;;
12145;SDS011;6136;47.032;15.398;2024-02-21T13:56:33;4.40;;;1.52;;
12145;SDS011;6136;47.032;15.398;2024-02-21T13:59:01;2.17;;;1.50;;
12145;SDS011;6136;47.032;15.398;2024-02-21T14:01:29;2.15;;;1.30;;
12145;SDS011;6136;47.032;15.398;2024-02-21T14:03:59;2.92;;;1.90;;
12145;SDS011;6136;47.032;15.398;2024-02-21T14:06:27;1.77;;;1.33;;
12145;SDS011;6136;47.032;15.398;2024-02-21T14:08:55;2.50;;;1.75;;
12145;SDS011;6136;47.032;15.398;2024-02-21T14:11:23;1.40;;;1.30;;
12145;SDS011;6136;47.032;15.398;2024-02-21T14:13:52;1.77;;;1.20;;
12145;SDS011;6136;47.032;15.398;2024-02-21T14:16:24;1.37;;;1.27;;
12145;SDS011;6136;47.032;15.398;2024-02-21T14:18:52;1.63;;;1.40;;
12145;SDS011;6136;47.032;15.398;2024-02-21T14:21:21;2.30;;;1.33;;
12145;SDS011;6136;47.032;15.398;2024-02-21T14:23:49;1.93;;;1.30;;
12145;SDS011;6136;47.032;15.398;2024-02-21T14:26:17;3.40;;;2.33;;
12145;SDS011;6136;47.032;15.398;2024-02-21T14:28:45;2.33;;;1.60;;
12145;SDS011;6136;47.032;15.398;2024-02-21T14:31:15;2.03;;;1.33;;
12145;SDS011;6136;47.032;15.398;2024-02-21T14:33:43;3.17;;;1.80;;
12145;SDS011;6136;47.032;15.398;2024-02-21T14:36:12;3.17;;;1.60;;
12145;SDS011;6136;47.032;15.398;2024-02-21T14:38:42;2.33;;;1.43;;
12145;SDS011;6136;47.032;15.398;2024-02-21T14:41:10;2.03;;;1.50;;
12145;SDS011;6136;47.032;15.398;2024-02-21T14:43:38;4.47;;;1.47;;
12145;SDS011;6136;47.032;15.398;2024-02-21T14:46:06;2.40;;;1.47;;
12145;SDS011;6136;47.032;15.398;2024-02-21T14:48:36;2.37;;;1.37;;
12145;SDS011;6136;47.032;15.398;2024-02-21T14:51:04;2.17;;;1.90;;
12145;SDS011;6136;47.032;15.398;2024-02-21T14:53:32;2.33;;;1.50;;
12145;SDS011;6136;47.032;15.398;2024-02-21T14:56:00;2.20;;;1.33;;